Kamsack, Canada
Current Conditions -  °F | °C
As of 9:32 PM on Saturday 22 Nov 2014 (Local Time) from CYQV Reporting Station
Light Snow Light Snow  
Wind Chill:   Ceiling: 1100
Heat Index: 21°   Visibility: 9mi
Dew Point: 19°   Wind: 14mph
Humidity: 93%   Direction: 70°ENE
Pressure: 29.24"   Gusts: NA
Location:  51.57°N, 101.9°W
Report Text: CYQV 230332Z AUTO 07012KT 9SM -SN OVC011 M06/M07 A2924 RMK SLP932
Loading
Personal Weather Stations






























Interactive Weather Map New forecast layout! Learn more

10-Day Weather Forecast

Advertisements
Track Severe Weather on mobile